createdAt,value
2023-02-04T00:00:17.185Z,10.87
2023-02-04T00:02:43.790Z,10.78
2023-02-04T00:05:12.000Z,11.05
2023-02-04T00:07:41.224Z,10.76
2023-02-04T00:10:08.706Z,11.06
2023-02-04T00:12:35.974Z,10.71
2023-02-04T00:15:02.719Z,10.87
2023-02-04T00:17:29.369Z,10.62
2023-02-04T00:19:57.037Z,10.84
2023-02-04T00:22:23.694Z,10.85
2023-02-04T00:24:51.402Z,10.94
2023-02-04T00:27:18.275Z,10.80
2023-02-04T00:29:45.892Z,10.90
2023-02-04T00:32:12.803Z,10.85
2023-02-04T00:34:39.466Z,10.90
2023-02-04T00:37:06.134Z,11.03
2023-02-04T00:39:32.872Z,10.91
2023-02-04T00:41:59.631Z,10.71
2023-02-04T00:44:26.218Z,10.96
2023-02-04T00:46:52.795Z,10.86
2023-02-04T00:49:19.387Z,10.70
2023-02-04T00:51:46.812Z,10.95
2023-02-04T00:54:16.038Z,10.79
2023-02-04T00:56:44.469Z,10.90
2023-02-04T00:59:12.139Z,10.90
2023-02-04T01:01:38.944Z,10.73
2023-02-04T01:04:05.974Z,10.86
2023-02-04T01:06:33.102Z,10.86
2023-02-04T01:08:59.931Z,10.87
2023-02-04T01:11:26.602Z,10.97
2023-02-04T01:13:53.256Z,10.82
2023-02-04T01:16:20.123Z,10.95
2023-02-04T01:18:46.884Z,10.71
2023-02-04T01:21:13.866Z,10.75
2023-02-04T01:23:40.507Z,10.79
2023-02-04T01:26:07.161Z,10.96
2023-02-04T01:28:33.758Z,10.99
2023-02-04T01:31:01.091Z,10.81
2023-02-04T01:33:27.830Z,10.74
2023-02-04T01:35:54.657Z,10.99
2023-02-04T01:38:21.209Z,10.77
2023-02-04T01:40:48.287Z,10.83
2023-02-04T01:43:15.256Z,10.93
2023-02-04T01:45:41.959Z,10.61
2023-02-04T01:48:08.596Z,10.66
2023-02-04T01:50:35.764Z,10.76
2023-02-04T01:53:02.748Z,10.85
2023-02-04T01:55:32.124Z,10.79
2023-02-04T01:57:59.190Z,10.78
2023-02-04T02:00:28.002Z,10.95
2023-02-04T02:02:55.592Z,10.84
2023-02-04T02:05:25.876Z,10.75
2023-02-04T02:07:55.315Z,10.92
2023-02-04T02:10:24.516Z,10.79
2023-02-04T02:12:51.841Z,10.80
2023-02-04T02:15:19.080Z,10.90
2023-02-04T02:17:46.007Z,10.65
2023-02-04T02:20:16.083Z,10.71
2023-02-04T02:23:02.400Z,10.66
2023-02-04T02:25:29.421Z,10.62
2023-02-04T02:27:57.864Z,10.66
2023-02-04T02:30:24.935Z,10.61
2023-02-04T02:32:52.957Z,10.73
2023-02-04T02:35:20.144Z,10.81
2023-02-04T02:37:46.800Z,10.77
2023-02-04T02:40:14.716Z,10.52
2023-02-04T02:42:44.032Z,10.75
2023-02-04T02:45:22.677Z,10.84
2023-02-04T02:47:50.085Z,10.72
2023-02-04T02:50:20.000Z,10.86
2023-02-04T02:52:47.130Z,10.85
2023-02-04T02:55:19.200Z,10.61
2023-02-04T02:57:46.983Z,10.70
2023-02-04T03:00:23.059Z,10.74
2023-02-04T03:03:08.745Z,10.54
2023-02-04T03:05:42.172Z,10.69
2023-02-04T03:08:10.144Z,10.82
2023-02-04T03:10:37.422Z,10.81
2023-02-04T03:13:04.791Z,10.67
2023-02-04T03:15:32.218Z,10.58
2023-02-04T03:18:00.106Z,10.67
2023-02-04T03:20:30.577Z,10.79
2023-02-04T03:22:57.963Z,10.79
2023-02-04T03:25:26.594Z,10.76
2023-02-04T03:27:54.469Z,10.59
2023-02-04T03:30:22.276Z,10.59
2023-02-04T03:32:49.011Z,10.55
2023-02-04T03:35:15.904Z,10.59
2023-02-04T03:37:42.584Z,10.49
2023-02-04T03:40:10.374Z,10.54
2023-02-04T03:42:36.979Z,10.64
2023-02-04T03:45:04.497Z,10.46
2023-02-04T03:47:31.307Z,10.68
2023-02-04T03:49:57.799Z,10.60
2023-02-04T03:52:24.371Z,10.54
2023-02-04T03:54:50.880Z,10.59
2023-02-04T03:57:17.375Z,10.54
2023-02-04T03:59:44.255Z,10.48
2023-02-04T04:02:10.809Z,10.51
2023-02-04T04:04:37.421Z,10.52
2023-02-04T04:07:04.115Z,10.52
2023-02-04T04:09:30.766Z,10.26
2023-02-04T04:11:57.531Z,10.23
2023-02-04T04:14:24.136Z,10.39
2023-02-04T04:16:50.711Z,10.56
2023-02-04T04:19:17.286Z,10.49
2023-02-04T04:21:43.866Z,10.49
2023-02-04T04:24:10.373Z,10.40
2023-02-04T04:26:37.413Z,10.38
2023-02-04T04:29:04.043Z,10.49
2023-02-04T04:31:30.739Z,10.37
2023-02-04T04:33:57.347Z,10.41
2023-02-04T04:36:23.868Z,10.31
2023-02-04T04:38:50.439Z,10.20
2023-02-04T04:41:16.991Z,10.17
2023-02-04T04:43:43.558Z,10.31
2023-02-04T04:46:10.132Z,10.48
2023-02-04T04:48:36.749Z,10.50
2023-02-04T04:51:03.492Z,10.27
2023-02-04T04:53:30.192Z,10.26
2023-02-04T04:55:56.730Z,10.13
2023-02-04T04:58:23.378Z,10.31
2023-02-04T05:00:50.020Z,10.32
2023-02-04T05:03:16.586Z,10.27
2023-02-04T05:05:44.372Z,10.28
2023-02-04T05:08:13.672Z,10.23
2023-02-04T05:10:41.254Z,10.30
2023-02-04T05:13:07.893Z,10.41
2023-02-04T05:15:34.926Z,10.35
2023-02-04T05:18:01.919Z,10.26
2023-02-04T05:20:28.558Z,10.21
2023-02-04T05:23:01.906Z,10.40
2023-02-04T05:25:29.444Z,10.12
2023-02-04T05:27:56.020Z,10.22
2023-02-04T05:30:22.762Z,10.15
2023-02-04T05:32:49.382Z,10.13
2023-02-04T05:35:16.415Z,10.36
2023-02-04T05:37:43.041Z,10.20
2023-02-04T05:40:10.691Z,10.30
2023-02-04T05:42:37.509Z,10.22
2023-02-04T05:45:04.548Z,10.23
2023-02-04T05:47:31.173Z,10.14
2023-02-04T05:49:57.765Z,10.22
2023-02-04T05:52:24.393Z,10.11
2023-02-04T05:54:51.052Z,10.12
2023-02-04T05:57:17.653Z,10.10
2023-02-04T05:59:44.294Z,10.12
2023-02-04T06:02:11.263Z,10.03
2023-02-04T06:04:38.220Z,10.00
2023-02-04T06:07:04.905Z,10.20
2023-02-04T06:09:31.536Z,10.22
2023-02-04T06:11:58.295Z,10.22
2023-02-04T06:14:24.890Z,9.94
2023-02-04T06:16:51.582Z,9.98
2023-02-04T06:19:18.252Z,10.21
2023-02-04T06:21:48.223Z,10.11
2023-02-04T06:24:14.790Z,9.75
2023-02-04T06:26:41.305Z,10.02
2023-02-04T06:29:07.996Z,9.94
2023-02-04T06:31:34.877Z,10.01
2023-02-04T06:34:01.751Z,9.91
2023-02-04T06:36:35.476Z,9.85
2023-02-04T06:39:04.941Z,9.79
2023-02-04T06:41:31.592Z,9.84
2023-02-04T06:43:58.378Z,9.86
2023-02-04T06:46:25.057Z,9.90
2023-02-04T06:48:51.892Z,9.86
2023-02-04T06:51:18.561Z,10.03
2023-02-04T06:53:46.095Z,10.10
2023-02-04T06:56:12.793Z,10.03
2023-02-04T06:58:39.573Z,9.94
2023-02-04T07:01:06.441Z,9.98
2023-02-04T07:03:33.280Z,9.99
2023-02-04T07:06:02.520Z,10.12
2023-02-04T07:08:32.429Z,9.78
2023-02-04T07:10:59.520Z,9.50
2023-02-04T07:13:26.116Z,10.04
2023-02-04T07:15:55.242Z,9.78
2023-02-04T07:18:21.962Z,9.73
2023-02-04T07:20:48.598Z,9.86
2023-02-04T07:23:15.392Z,9.80
2023-02-04T07:25:42.156Z,9.75
2023-02-04T07:28:08.836Z,9.94
2023-02-04T07:30:35.954Z,10.07
2023-02-04T07:33:02.807Z,9.82
2023-02-04T07:35:29.450Z,9.80
2023-02-04T07:37:56.017Z,9.84
2023-02-04T07:40:22.970Z,9.89
2023-02-04T07:42:49.662Z,10.07
2023-02-04T07:45:16.351Z,9.94
2023-02-04T07:47:42.920Z,9.92
2023-02-04T07:50:09.806Z,9.89
2023-02-04T07:52:38.904Z,9.95
2023-02-04T07:55:13.643Z,9.97
2023-02-04T07:57:46.159Z,9.84
2023-02-04T08:00:15.906Z,9.73
2023-02-04T08:02:42.776Z,10.06
2023-02-04T08:05:10.483Z,9.92
2023-02-04T08:07:39.209Z,9.86
2023-02-04T08:10:12.758Z,9.89
2023-02-04T08:12:39.439Z,9.69
2023-02-04T08:15:08.652Z,9.95
2023-02-04T08:17:35.792Z,9.95
2023-02-04T08:20:02.387Z,10.12
2023-02-04T08:22:29.605Z,9.84
2023-02-04T08:24:56.247Z,9.52
2023-02-04T08:27:22.789Z,9.70
2023-02-04T08:29:52.528Z,9.88
2023-02-04T08:32:29.518Z,9.93
2023-02-04T08:34:56.117Z,9.82
2023-02-04T08:37:28.325Z,9.90
2023-02-04T08:40:07.261Z,9.87
2023-02-04T08:42:37.661Z,10.16
2023-02-04T08:45:06.932Z,9.76
2023-02-04T08:47:33.527Z,9.95
2023-02-04T08:50:00.555Z,10.02
2023-02-04T08:52:32.096Z,10.32
2023-02-04T08:55:13.554Z,10.32
2023-02-04T08:57:40.653Z,10.00
2023-02-04T09:00:11.559Z,9.96
2023-02-04T09:02:38.330Z,10.20
2023-02-04T09:05:05.865Z,10.06
2023-02-04T09:07:34.193Z,10.30
2023-02-04T09:10:00.807Z,10.30
2023-02-04T09:12:35.384Z,10.37
2023-02-04T09:15:02.254Z,10.09
2023-02-04T09:17:31.141Z,10.51
2023-02-04T09:20:18.256Z,10.69
2023-02-04T09:22:45.324Z,10.23
2023-02-04T09:25:12.053Z,10.54
2023-02-04T09:28:01.397Z,10.79
2023-02-04T09:30:26.683Z,10.37
2023-02-04T09:32:57.561Z,10.44
2023-02-04T09:35:33.712Z,10.83
2023-02-04T09:38:03.198Z,10.76
2023-02-04T09:40:38.004Z,11.00
2023-02-04T09:43:43.879Z,10.75
2023-02-04T09:46:24.116Z,10.55
2023-02-04T09:48:51.596Z,10.79
2023-02-04T09:51:25.545Z,10.86
2023-02-04T09:53:54.341Z,10.56
2023-02-04T09:56:23.370Z,10.65
2023-02-04T09:58:50.790Z,10.82
2023-02-04T10:01:20.020Z,10.77
2023-02-04T10:03:51.468Z,10.90
2023-02-04T10:06:21.002Z,10.75
2023-02-04T10:08:52.159Z,10.68
2023-02-04T10:11:25.091Z,10.68
2023-02-04T10:13:58.881Z,10.89
2023-02-04T10:16:32.351Z,10.68
2023-02-04T10:19:08.039Z,11.03
2023-02-04T10:21:37.627Z,10.89
2023-02-04T10:27:43.668Z,11.18
2023-02-04T10:30:42.619Z,10.71
2023-02-04T10:33:31.395Z,10.99
2023-02-04T10:36:00.370Z,10.92
2023-02-04T10:39:13.195Z,11.20
2023-02-04T10:41:57.251Z,10.81
2023-02-04T10:47:23.652Z,11.31
2023-02-04T10:50:18.283Z,10.90
2023-02-04T10:53:30.104Z,11.00
2023-02-04T10:55:57.598Z,10.68
2023-02-04T10:58:36.016Z,10.70
2023-02-04T11:01:05.671Z,10.75
2023-02-04T11:04:15.684Z,10.71
2023-02-04T11:06:51.658Z,11.06
2023-02-04T11:09:27.723Z,11.02
2023-02-04T11:12:05.015Z,11.30
2023-02-04T11:14:41.950Z,11.17
2023-02-04T11:17:21.314Z,11.19
2023-02-04T11:19:54.481Z,11.09
2023-02-04T11:22:55.075Z,10.87
2023-02-04T11:25:41.089Z,11.17
2023-02-04T11:29:01.314Z,11.50
2023-02-04T11:36:06.580Z,10.95
2023-02-04T11:38:44.347Z,11.05
2023-02-04T11:41:29.517Z,11.42
2023-02-04T11:43:58.860Z,11.11
2023-02-04T11:46:34.859Z,11.45
2023-02-04T11:49:01.987Z,11.22
2023-02-04T11:51:32.669Z,11.48
2023-02-04T11:54:13.958Z,11.07
2023-02-04T11:57:15.764Z,11.21
2023-02-04T12:00:18.378Z,11.00
2023-02-04T12:03:21.201Z,11.48
2023-02-04T12:06:09.029Z,11.01
2023-02-04T12:08:37.488Z,11.05
2023-02-04T12:11:08.075Z,11.31
2023-02-04T12:13:58.418Z,10.83
2023-02-04T12:17:37.904Z,11.27
2023-02-04T12:20:20.691Z,11.01
2023-02-04T12:22:48.443Z,10.84
2023-02-04T12:25:36.323Z,10.90
2023-02-04T12:30:53.231Z,10.91
2023-02-04T12:33:51.214Z,11.38
2023-02-04T12:36:27.145Z,10.93
2023-02-04T12:42:10.508Z,11.09
2023-02-04T12:45:18.300Z,10.87
2023-02-04T12:48:58.827Z,10.95
2023-02-04T12:51:26.829Z,10.96
2023-02-04T12:54:05.061Z,10.74
2023-02-04T12:57:11.624Z,11.10
2023-02-04T12:59:41.590Z,10.99
2023-02-04T13:02:23.502Z,11.39
2023-02-04T13:05:39.831Z,10.74
2023-02-04T13:08:11.576Z,10.80
2023-02-04T13:10:52.882Z,11.18
2023-02-04T13:13:29.314Z,11.07
2023-02-04T13:15:58.579Z,11.33
2023-02-04T13:18:36.073Z,10.86
2023-02-04T13:21:10.712Z,11.01
2023-02-04T13:24:08.531Z,10.88
2023-02-04T13:26:35.356Z,11.06
2023-02-04T13:29:07.320Z,11.14
2023-02-04T13:31:39.904Z,10.79
2023-02-04T13:34:10.789Z,11.01
2023-02-04T13:36:50.395Z,11.06
2023-02-04T13:39:28.404Z,10.92
2023-02-04T13:42:23.882Z,10.71
2023-02-04T13:44:50.944Z,11.11
2023-02-04T13:47:17.493Z,11.12
2023-02-04T13:49:44.360Z,11.28
2023-02-04T13:52:11.056Z,11.15
2023-02-04T13:54:49.922Z,11.14
2023-02-04T13:57:21.584Z,10.75
2023-02-04T14:00:00.402Z,10.91
2023-02-04T14:02:27.414Z,10.74
2023-02-04T14:05:07.952Z,10.75
2023-02-04T14:08:09.669Z,11.35
2023-02-04T14:11:12.643Z,10.77
2023-02-04T14:13:49.531Z,11.13
2023-02-04T14:16:16.445Z,10.77
2023-02-04T14:18:51.991Z,10.91
2023-02-04T14:21:44.395Z,10.66
2023-02-04T14:24:13.551Z,10.78
2023-02-04T14:26:46.262Z,10.90
2023-02-04T14:32:00.824Z,10.78
2023-02-04T14:34:28.937Z,10.98
2023-02-04T14:36:55.636Z,10.90
2023-02-04T14:39:22.372Z,10.77
2023-02-04T14:43:04.131Z,11.11
2023-02-04T14:45:27.835Z,11.25
2023-02-04T14:48:03.559Z,11.04
2023-02-04T14:50:36.823Z,10.80
2023-02-04T14:53:20.380Z,10.92
2023-02-04T14:56:17.957Z,10.91
2023-02-04T14:58:52.630Z,11.02
2023-02-04T15:01:52.986Z,11.03
2023-02-04T15:04:19.790Z,10.82
2023-02-04T15:06:51.160Z,10.76
2023-02-04T15:09:58.783Z,10.86
2023-02-04T15:12:44.653Z,11.15
2023-02-04T15:15:29.901Z,11.00
2023-02-04T15:18:53.206Z,10.78
2023-02-04T15:25:16.091Z,11.00
2023-02-04T15:31:42.356Z,10.70
2023-02-04T15:38:44.435Z,10.93
2023-02-04T15:53:15.413Z,10.66
2023-02-04T15:55:53.176Z,10.57
2023-02-04T15:58:20.191Z,10.75
2023-02-04T16:00:49.450Z,10.92
2023-02-04T16:03:17.290Z,10.68
2023-02-04T16:05:52.200Z,10.64
2023-02-04T16:08:31.027Z,10.86
2023-02-04T16:11:00.918Z,10.46
2023-02-04T16:14:59.982Z,10.99
2023-02-04T16:17:43.393Z,10.53
2023-02-04T16:20:29.933Z,10.50
2023-02-04T16:23:02.638Z,10.40
2023-02-04T16:25:32.629Z,10.35
2023-02-04T16:28:03.210Z,10.25
2023-02-04T16:30:33.078Z,10.70
2023-02-04T16:33:20.987Z,10.31
2023-02-04T16:37:00.175Z,10.79
2023-02-04T16:39:28.772Z,10.38
2023-02-04T16:42:29.716Z,10.09
2023-02-04T16:45:49.033Z,10.20
2023-02-04T16:48:42.235Z,10.69
2023-02-04T16:51:37.097Z,10.45
2023-02-04T16:54:10.137Z,10.38
2023-02-04T16:56:46.113Z,10.29
2023-02-04T16:59:15.898Z,10.04
2023-02-04T17:02:01.918Z,10.35
2023-02-04T17:04:35.395Z,10.03
2023-02-04T17:07:07.324Z,10.16
2023-02-04T17:10:17.654Z,10.05
2023-02-04T17:12:47.496Z,10.07
2023-02-04T17:15:55.027Z,9.76
2023-02-04T17:18:31.580Z,9.91
2023-02-04T17:21:07.350Z,9.72
2023-02-04T17:23:44.767Z,10.19
2023-02-04T17:26:14.123Z,9.98
2023-02-04T17:31:55.171Z,9.92
2023-02-04T17:34:34.000Z,10.21
2023-02-04T17:37:10.751Z,9.98
2023-02-04T17:40:01.039Z,10.36
2023-02-04T17:43:36.736Z,9.97
2023-02-04T17:45:50.971Z,9.84
2023-02-04T17:48:18.571Z,10.10
2023-02-04T17:54:23.977Z,9.98
2023-02-04T17:56:57.365Z,10.08
2023-02-04T17:59:27.407Z,9.92
2023-02-04T18:01:57.155Z,9.84
2023-02-04T18:04:27.069Z,10.02
2023-02-04T18:06:54.004Z,9.93
2023-02-04T18:09:23.477Z,9.75
2023-02-04T18:11:53.862Z,9.67
2023-02-04T18:14:46.969Z,10.20
2023-02-04T18:17:16.024Z,9.84
2023-02-04T18:19:54.914Z,9.57
2023-02-04T18:22:25.675Z,9.89
2023-02-04T18:24:54.340Z,9.89
2023-02-04T18:27:24.790Z,9.81
2023-02-04T18:29:55.708Z,10.19
2023-02-04T18:32:28.690Z,9.73
2023-02-04T18:34:57.508Z,9.87
2023-02-04T18:37:31.266Z,10.18
2023-02-04T18:40:28.426Z,10.08
2023-02-04T18:43:37.019Z,10.12
2023-02-04T18:46:45.893Z,9.68
2023-02-04T18:49:37.388Z,10.08
2023-02-04T19:39:45.375Z,9.82
2023-02-04T19:42:38.377Z,10.10
2023-02-04T19:45:20.763Z,9.90
2023-02-04T19:47:58.169Z,9.77
2023-02-04T19:50:28.600Z,9.63
2023-02-04T19:53:19.899Z,9.56
2023-02-04T19:55:52.161Z,9.79
2023-02-04T19:58:54.613Z,10.10
2023-02-04T20:01:24.017Z,9.95
2023-02-04T20:04:01.456Z,9.95
2023-02-04T20:06:45.861Z,9.42
2023-02-04T20:09:30.741Z,9.71
2023-02-04T20:11:58.904Z,9.95
2023-02-04T20:14:41.278Z,10.06
2023-02-04T20:17:26.400Z,10.05
2023-02-04T20:19:53.284Z,9.69
2023-02-04T20:25:21.897Z,10.00
2023-02-04T20:27:58.205Z,9.62
2023-02-04T20:30:32.453Z,9.76
2023-02-04T20:33:37.937Z,9.98
2023-02-04T20:36:32.203Z,9.39
2023-02-04T20:39:38.216Z,9.99
2023-02-04T20:42:34.382Z,9.94
2023-02-04T20:45:21.066Z,9.97
2023-02-04T20:48:03.358Z,9.43
2023-02-04T20:50:38.995Z,9.93
2023-02-04T20:53:24.152Z,9.81
2023-02-04T23:00:45.909Z,9.65
2023-02-04T23:03:13.212Z,9.34
2023-02-04T23:05:43.378Z,9.45
2023-02-04T23:08:24.717Z,9.53
2023-02-04T23:10:59.456Z,9.38
2023-02-04T23:13:34.045Z,9.79
2023-02-04T23:16:00.849Z,9.58
2023-02-04T23:18:32.735Z,9.56
2023-02-04T23:21:01.837Z,9.90
2023-02-04T23:23:31.894Z,9.65
2023-02-04T23:26:00.591Z,9.72
2023-02-04T23:28:27.308Z,9.81
2023-02-04T23:30:54.198Z,9.79
2023-02-04T23:33:20.748Z,9.69
2023-02-04T23:35:47.820Z,9.68
2023-02-04T23:38:14.425Z,9.61
2023-02-04T23:40:41.012Z,9.80
2023-02-04T23:43:10.722Z,10.01
2023-02-04T23:45:38.015Z,9.69
2023-02-04T23:48:05.395Z,9.86
2023-02-04T23:50:32.212Z,9.86
2023-02-04T23:52:58.802Z,9.79
2023-02-04T23:55:25.510Z,9.57
2023-02-04T23:57:52.180Z,9.76
